Time;durP1;ratioP1;P1;durP2;ratioP2;P2;SDS_P1;SDS_P2;PMS_P1;PMS_P2;Temp;Humidity;BMP_temperature;BMP_pressure;BME280_temperature;BME280_humidity;BME280_pressure;Samples;Min_cycle;Max_cycle;Signal;HPM_P1;HPM_P2
2021/11/10 00:00:16;;;;;;;1.85;1.27;;;;;;;-1.04;100.00;102106.28;2576984;55;20121;-70
2021/11/10 00:02:44;;;;;;;4.65;2.72;;;;;;;-1.06;100.00;102105.44;2577122;55;20106;-70
2021/11/10 00:05:14;;;;;;;2.55;1.30;;;;;;;-1.04;100.00;102108.06;2576288;55;20482;-70
2021/11/10 00:07:42;;;;;;;4.25;1.77;;;;;;;-1.03;100.00;102105.41;2574763;55;20617;-70
2021/11/10 00:10:11;;;;;;;3.10;1.55;;;;;;;-1.02;100.00;102093.19;2573666;55;20105;-70
2021/11/10 00:12:39;;;;;;;4.60;1.42;;;;;;;-1.01;100.00;102087.94;2574905;55;20139;-70
2021/11/10 00:15:08;;;;;;;3.12;1.73;;;;;;;-1.01;100.00;102082.69;2575117;55;20752;-70
2021/11/10 00:17:36;;;;;;;4.22;2.20;;;;;;;-0.98;100.00;102071.31;2569295;55;20131;-70
2021/11/10 00:20:05;;;;;;;5.12;2.20;;;;;;;-0.94;100.00;102093.16;2576517;55;20101;-70
2021/11/10 00:22:35;;;;;;;5.05;2.25;;;;;;;-0.97;100.00;102073.06;2574847;55;20121;-70
2021/11/10 00:25:06;;;;;;;9.73;4.15;;;;;;;-0.98;100.00;102066.97;2574414;55;20143;-70
2021/11/10 00:27:34;;;;;;;8.30;2.53;;;;;;;-0.93;100.00;102082.69;2574603;55;20117;-71
2021/11/10 00:30:02;;;;;;;7.22;3.28;;;;;;;-0.94;100.00;102061.72;2576303;55;20124;-71
2021/11/10 00:32:30;;;;;;;5.75;2.37;;;;;;;-0.92;100.00;102067.81;2576000;55;20734;-71
2021/11/10 00:34:58;;;;;;;5.07;2.40;;;;;;;-0.90;100.00;102061.69;2574260;55;20148;-70
2021/11/10 00:37:26;;;;;;;6.35;2.30;;;;;;;-0.92;100.00;102059.94;2575654;55;20666;-70
2021/11/10 00:39:55;;;;;;;4.55;2.10;;;;;;;-0.88;100.00;102059.91;2576227;55;20142;-70
2021/11/10 00:42:23;;;;;;;10.20;2.90;;;;;;;-0.89;100.00;102054.72;2576020;55;20125;-70
2021/11/10 00:44:50;;;;;;;6.07;2.92;;;;;;;-0.90;100.00;102034.59;2575174;55;20101;-70
2021/11/10 00:47:18;;;;;;;10.82;3.95;;;;;;;-0.86;100.00;102044.19;2577336;55;21997;-70
2021/11/10 00:49:46;;;;;;;7.18;2.35;;;;;;;-0.88;100.00;102048.59;2576665;55;20120;-70
2021/11/10 00:52:14;;;;;;;6.65;2.70;;;;;;;-0.88;100.00;102036.34;2576999;55;20117;-70
2021/11/10 00:54:41;;;;;;;4.10;1.33;;;;;;;-0.83;100.00;102028.44;2576117;55;20752;-70
2021/11/10 00:57:11;;;;;;;8.40;1.92;;;;;;;-0.81;100.00;102016.19;2577442;55;20109;-70
2021/11/10 00:59:39;;;;;;;4.95;1.48;;;;;;;-0.79;100.00;102019.69;2573536;55;20122;-70
2021/11/10 01:02:07;;;;;;;8.65;1.67;;;;;;;-0.79;100.00;102016.19;2576331;55;20503;-70
2021/11/10 01:04:35;;;;;;;2.20;1.33;;;;;;;-0.79;100.00;102005.72;2573795;55;20139;-70
2021/11/10 01:07:04;;;;;;;2.80;1.73;;;;;;;-0.78;100.00;101995.22;2573488;55;20120;-70
2021/11/10 01:09:38;;;;;;;4.18;1.60;;;;;;;-0.79;100.00;101997.84;2576678;55;20123;-70
2021/11/10 01:12:09;;;;;;;4.62;1.55;;;;;;;-0.78;100.00;101989.97;2576109;55;20496;-70
2021/11/10 01:14:39;;;;;;;4.90;1.40;;;;;;;-0.78;100.00;101989.97;2576929;55;20718;-70
2021/11/10 01:17:08;;;;;;;5.18;1.25;;;;;;;-0.81;100.00;101984.75;2577142;55;20114;-70
2021/11/10 01:19:37;;;;;;;2.37;0.90;;;;;;;-0.77;100.00;101981.22;2575733;55;20114;-70
2021/11/10 01:22:06;;;;;;;4.82;1.05;;;;;;;-0.78;99.62;101963.78;2577154;55;20570;-70
2021/11/10 01:24:34;;;;;;;3.50;1.10;;;;;;;-0.74;99.34;101969.88;2575893;55;20123;-71
2021/11/10 01:27:03;;;;;;;4.40;1.00;;;;;;;-0.73;99.71;101968.97;2575393;55;20126;-70
2021/11/10 01:29:31;;;;;;;1.37;1.00;;;;;;;-0.71;98.46;101965.44;2576525;55;20128;-70
2021/11/10 01:32:01;;;;;;;1.55;0.90;;;;;;;-0.71;98.16;101960.19;2575136;55;20165;-70
2021/11/10 01:34:30;;;;;;;1.65;1.00;;;;;;;-0.63;97.23;101954.03;2576582;55;20111;-70
2021/11/10 01:36:58;;;;;;;1.87;0.90;;;;;;;-0.60;97.86;101960.13;2576418;55;20677;-70
2021/11/10 01:39:26;;;;;;;2.15;1.60;;;;;;;-0.58;96.99;101944.38;2575025;55;20149;-70
2021/11/10 01:42:02;;;;;;;1.45;0.80;;;;;;;-0.54;96.55;101950.47;2576596;55;20615;-70
2021/11/10 01:44:32;;;;;;;1.35;0.75;;;;;;;-0.58;96.18;101934.75;2576694;55;20132;-70
2021/11/10 01:47:06;;;;;;;3.45;1.05;;;;;;;-0.58;97.13;101933.91;2575702;55;20101;-70
2021/11/10 01:49:35;;;;;;;2.03;0.73;;;;;;;-0.57;96.35;101925.16;2576792;55;20126;-70
2021/11/10 01:52:05;;;;;;;1.05;0.80;;;;;;;-0.57;97.24;101912.88;2575463;55;20677;-70
2021/11/10 01:54:35;;;;;;;1.08;0.80;;;;;;;-0.56;96.91;101917.25;2574701;55;20132;-71
2021/11/10 01:57:05;;;;;;;0.77;0.60;;;;;;;-0.53;97.27;101907.66;2576523;55;20135;-70
2021/11/10 01:59:35;;;;;;;1.42;1.00;;;;;;;-0.55;97.27;101907.66;2575695;55;20492;-70
2021/11/10 02:02:08;;;;;;;1.67;1.00;;;;;;;-0.52;97.64;101904.97;2574041;55;20616;-70
2021/11/10 02:04:39;;;;;;;1.00;0.70;;;;;;;-0.52;97.05;101907.59;2575856;55;20124;-70
2021/11/10 02:07:09;;;;;;;1.77;0.82;;;;;;;-0.50;97.54;101897.13;2576883;55;20117;-70
2021/11/10 02:09:37;;;;;;;1.55;0.95;;;;;;;-0.49;97.70;101888.34;2577082;55;20135;-70
2021/11/10 02:12:06;;;;;;;1.52;0.80;;;;;;;-0.50;97.05;101879.66;2577544;55;20510;-70
2021/11/10 02:14:35;;;;;;;3.17;1.15;;;;;;;-0.52;97.42;101891.88;2576730;55;20125;-70
2021/11/10 02:17:05;;;;;;;1.00;0.75;;;;;;;-0.48;97.38;101882.22;2576120;55;20136;-70
2021/11/10 02:19:34;;;;;;;1.50;0.90;;;;;;;-0.43;97.79;101883.06;2571885;55;20653;-70
2021/11/10 02:22:04;;;;;;;3.05;1.02;;;;;;;-0.38;97.83;101883.03;2575489;55;20665;-70
2021/11/10 02:24:33;;;;;;;1.77;0.70;;;;;;;-0.42;97.87;101877.78;2577295;55;20120;-70
2021/11/10 02:27:01;;;;;;;1.75;0.90;;;;;;;-0.40;98.34;101869.03;2576694;55;20708;-70
2021/11/10 02:29:32;;;;;;;5.07;1.23;;;;;;;-0.39;98.35;101861.16;2576378;55;20133;-70
2021/11/10 02:32:00;;;;;;;3.92;0.88;;;;;;;-0.37;98.18;101863.78;2577431;55;20158;-70
2021/11/10 02:34:28;;;;;;;1.25;0.88;;;;;;;-0.38;98.05;101856.78;2575788;55;20117;-70
2021/11/10 02:36:56;;;;;;;2.22;1.15;;;;;;;-0.38;98.45;101851.53;2570045;55;20115;-71
2021/11/10 02:39:25;;;;;;;2.75;1.12;;;;;;;-0.39;98.60;101834.06;2577180;55;20711;-70
2021/11/10 02:41:53;;;;;;;3.58;1.58;;;;;;;-0.39;98.23;101841.94;2575460;55;20620;-71
2021/11/10 02:44:22;;;;;;;2.15;1.10;;;;;;;-0.37;99.33;101837.53;2578271;55;20128;-70
2021/11/10 02:46:52;;;;;;;1.20;1.02;;;;;;;-0.35;99.26;101841.00;2575709;55;20121;-70
2021/11/10 02:49:22;;;;;;;1.92;0.73;;;;;;;-0.35;99.37;101834.03;2576163;55;20623;-70
2021/11/10 02:51:57;;;;;;;1.52;0.98;;;;;;;-0.31;99.10;101832.22;2577040;55;20635;-70
2021/11/10 02:54:30;;;;;;;1.48;0.80;;;;;;;-0.28;100.00;101816.47;2577577;55;20662;-71
2021/11/10 02:56:59;;;;;;;1.27;0.77;;;;;;;-0.28;99.90;101800.72;2577092;55;20124;-71
2021/11/10 02:59:28;;;;;;;3.55;1.30;;;;;;;-0.27;100.00;101799.81;2577635;55;20094;-68
2021/11/10 03:01:58;;;;;;;5.15;1.35;;;;;;;-0.22;99.75;101795.38;2578447;55;20131;-70
2021/11/10 03:04:28;;;;;;;4.18;1.40;;;;;;;-0.21;100.00;101786.63;2578678;55;20109;-70
2021/11/10 03:06:58;;;;;;;1.70;1.15;;;;;;;-0.17;99.59;101776.94;2578432;55;20125;-67
2021/11/10 03:09:30;;;;;;;1.40;1.00;;;;;;;-0.14;100.00;101771.69;2578586;55;20166;-67
2021/11/10 03:12:01;;;;;;;1.98;0.98;;;;;;;-0.16;100.00;101774.31;2578538;55;20168;-67
2021/11/10 03:14:33;;;;;;;2.80;1.70;;;;;;;-0.15;100.00;101781.31;2578506;55;20113;-70
2021/11/10 03:17:03;;;;;;;1.53;0.83;;;;;;;-0.12;100.00;101763.78;2578621;55;21038;-67
2021/11/10 03:19:31;;;;;;;4.97;1.27;;;;;;;-0.06;100.00;101774.19;2578163;55;20185;-67
2021/11/10 03:21:59;;;;;;;5.10;0.90;;;;;;;-0.07;100.00;101761.97;2578556;55;20108;-70
2021/11/10 03:24:29;;;;;;;4.00;0.90;;;;;;;-0.06;100.00;101766.31;2578525;55;20121;-68
2021/11/10 03:26:58;;;;;;;1.58;0.80;;;;;;;-0.02;100.00;101765.37;2578560;55;20121;-68
2021/11/10 03:29:26;;;;;;;2.58;1.37;;;;;;;-0.11;100.00;101749.75;2578547;55;20485;-68
2021/11/10 03:31:54;;;;;;;4.40;1.10;;;;;;;0.01;100.00;101753.97;2578460;55;20131;-68
2021/11/10 03:34:23;;;;;;;1.52;1.00;;;;;;;0.05;100.00;101753.03;2578538;55;20164;-67
2021/11/10 03:36:51;;;;;;;2.10;0.88;;;;;;;0.06;100.00;101758.28;2578457;55;20623;-71
2021/11/10 03:39:19;;;;;;;3.87;1.30;;;;;;;0.07;100.00;101749.50;2578395;55;20127;-67
2021/11/10 03:41:49;;;;;;;1.98;0.88;;;;;;;0.05;100.00;101746.03;2573221;55;20117;-70
2021/11/10 03:44:18;;;;;;;5.50;1.25;;;;;;;0.07;100.00;101749.50;2578542;55;20119;-68
2021/11/10 03:46:46;;;;;;;1.80;0.98;;;;;;;0.06;100.00;101739.06;2578529;55;20484;-67
2021/11/10 03:49:15;;;;;;;3.42;1.08;;;;;;;0.06;100.00;101736.44;2576243;55;20587;-70
2021/11/10 03:51:44;;;;;;;3.25;1.35;;;;;;;0.08;100.00;101743.38;2575375;55;20117;-70
2021/11/10 03:54:15;;;;;;;5.62;1.17;;;;;;;0.13;100.00;101736.31;2576017;55;20686;-70
2021/11/10 03:56:45;;;;;;;1.70;0.70;;;;;;;0.12;100.00;101736.31;2574530;55;20129;-70
2021/11/10 03:59:15;;;;;;;2.03;0.85;;;;;;;0.14;100.00;101734.53;2571915;55;20265;-70
2021/11/10 04:01:44;;;;;;;1.52;0.90;;;;;;;0.16;100.00;101731.91;2574007;55;20116;-71
2021/11/10 04:04:12;;;;;;;1.35;1.12;;;;;;;0.15;100.00;101738.03;2576781;55;20120;-70
2021/11/10 04:06:40;;;;;;;1.92;1.10;;;;;;;0.16;100.00;101745.00;2573878;55;20137;-70
2021/11/10 04:09:09;;;;;;;3.20;0.90;;;;;;;0.16;100.00;101738.03;2576754;55;20128;-67
2021/11/10 04:11:37;;;;;;;11.52;2.00;;;;;;;0.15;100.00;101719.66;2577026;55;20120;-67
2021/11/10 04:14:07;;;;;;;2.08;1.00;;;;;;;0.10;100.00;101727.59;2571715;55;20139;-67
2021/11/10 04:16:38;;;;;;;2.45;1.17;;;;;;;0.09;100.00;101724.09;2573646;55;20192;-67
2021/11/10 04:19:06;;;;;;;1.52;0.90;;;;;;;0.06;100.00;101725.94;2577879;55;20525;-67
2021/11/10 04:21:34;;;;;;;3.47;1.60;;;;;;;0.03;100.00;101726.84;2577027;55;20117;-69
2021/11/10 04:24:04;;;;;;;7.25;2.58;;;;;;;0.02;100.00;101714.59;2578193;55;20145;-67
2021/11/10 04:26:35;;;;;;;3.10;1.70;;;;;;;0.02;100.00;101727.72;2578426;55;20128;-67
2021/11/10 04:29:04;;;;;;;2.45;1.37;;;;;;;-0.01;100.00;101714.63;2578616;55;20157;-70
2021/11/10 04:31:33;;;;;;;3.12;1.05;;;;;;;-0.03;100.00;101708.53;2578057;55;20120;-67
2021/11/10 04:34:04;;;;;;;3.90;1.52;;;;;;;0.01;100.00;101709.38;2578103;55;20553;-70
2021/11/10 04:36:33;;;;;;;2.55;1.30;;;;;;;-0.01;100.00;101701.50;2578210;55;20118;-67
2021/11/10 04:39:02;;;;;;;1.50;1.00;;;;;;;-0.01;100.00;101698.88;2578237;55;20101;-70
2021/11/10 04:41:30;;;;;;;2.30;1.17;;;;;;;0.05;100.00;101708.41;2578193;55;20125;-69
2021/11/10 04:43:58;;;;;;;1.75;1.08;;;;;;;0.08;100.00;101700.53;2577746;55;20128;-68
2021/11/10 04:46:30;;;;;;;2.30;1.20;;;;;;;0.06;100.00;101692.66;2578065;55;20105;-67
2021/11/10 04:48:58;;;;;;;3.22;1.58;;;;;;;0.08;100.00;101690.03;2578130;55;20135;-70
2021/11/10 04:51:29;;;;;;;3.45;1.40;;;;;;;0.07;100.00;101683.91;2578197;55;20618;-67
2021/11/10 04:53:58;;;;;;;2.47;1.55;;;;;;;0.08;100.00;101692.66;2578477;55;20114;-70
2021/11/10 04:56:26;;;;;;;3.35;1.33;;;;;;;0.10;100.00;101669.88;2578159;55;20113;-70
2021/11/10 04:58:55;;;;;;;2.45;1.48;;;;;;;0.11;100.00;101680.34;2578418;55;20128;-68
2021/11/10 05:01:26;;;;;;;1.60;0.90;;;;;;;0.15;100.00;101677.66;2578024;55;20124;-68
2021/11/10 05:03:55;;;;;;;1.77;1.10;;;;;;;0.17;100.00;101673.25;2578279;55;20143;-70
2021/11/10 05:06:24;;;;;;;2.10;1.12;;;;;;;0.16;100.00;101669.78;2578048;55;20121;-70
2021/11/10 05:08:54;;;;;;;3.30;1.20;;;;;;;0.11;100.00;101664.59;2578206;55;20119;-67
2021/11/10 05:11:22;;;;;;;2.60;1.00;;;;;;;0.13;100.00;101665.44;2578165;55;20519;-67
2021/11/10 05:13:52;;;;;;;1.77;1.00;;;;;;;0.16;100.00;101668.91;2578420;55;20121;-67
2021/11/10 05:16:20;;;;;;;4.10;1.00;;;;;;;0.15;100.00;101673.31;2578342;55;20101;-69
2021/11/10 05:18:48;;;;;;;3.00;1.25;;;;;;;0.18;100.00;101664.47;2578369;55;20484;-70
2021/11/10 05:21:17;;;;;;;1.35;0.98;;;;;;;0.20;100.00;101658.31;2578380;55;20639;-70
2021/11/10 05:23:45;;;;;;;4.80;1.08;;;;;;;0.24;100.00;101661.78;2578411;55;20132;-67
2021/11/10 05:26:14;;;;;;;1.73;0.98;;;;;;;0.24;100.00;101656.53;2577900;55;20115;-70
2021/11/10 05:28:42;;;;;;;7.80;4.03;;;;;;;0.17;100.00;101644.38;2577401;55;20135;-70
2021/11/10 05:31:10;;;;;;;3.70;1.50;;;;;;;0.16;100.00;101640.03;2577983;55;20113;-70
2021/11/10 05:33:38;;;;;;;3.37;2.50;;;;;;;0.14;100.00;101637.41;2578059;55;20109;-67
2021/11/10 05:36:05;;;;;;;1.42;0.90;;;;;;;0.10;100.00;101631.38;2577368;55;20113;-67
2021/11/10 05:38:33;;;;;;;2.42;1.27;;;;;;;0.08;100.00;101630.50;2577927;55;20121;-67
2021/11/10 05:41:01;;;;;;;3.05;1.20;;;;;;;0.10;100.00;101628.75;2573088;55;20123;-68
2021/11/10 05:43:31;;;;;;;4.00;1.40;;;;;;;0.09;100.00;101621.75;2577796;55;20136;-70
2021/11/10 05:45:59;;;;;;;6.80;2.47;;;;;;;0.04;100.00;101613.09;2578088;55;20168;-68
2021/11/10 05:48:27;;;;;;;2.90;0.90;;;;;;;0.06;100.00;101615.72;2577098;55;20118;-68
2021/11/10 05:50:55;;;;;;;5.10;1.95;;;;;;;0.05;100.00;101608.69;2578132;55;20646;-70
2021/11/10 05:53:23;;;;;;;2.35;1.30;;;;;;;0.08;100.00;101613.91;2577861;55;20114;-70
2021/11/10 05:55:55;;;;;;;2.08;1.27;;;;;;;0.10;100.00;101602.50;2577724;55;20124;-71
2021/11/10 05:58:24;;;;;;;3.53;1.62;;;;;;;0.16;100.00;101605.91;2578141;55;20117;-73
2021/11/10 06:00:54;;;;;;;3.00;1.27;;;;;;;0.17;100.00;101603.25;2576558;55;20639;-66
2021/11/10 06:03:22;;;;;;;8.43;2.35;;;;;;;0.20;100.00;101591.81;2577685;55;20598;-69
2021/11/10 06:05:51;;;;;;;3.20;1.50;;;;;;;0.18;100.00;101596.25;2577810;55;20114;-76
2021/11/10 06:08:19;;;;;;;5.25;2.78;;;;;;;0.18;100.00;101598.88;2577773;55;20124;-75
2021/11/10 06:10:47;;;;;;;3.85;1.80;;;;;;;0.23;100.00;101597.03;2577321;55;20132;-76
2021/11/10 06:13:15;;;;;;;4.55;1.25;;;;;;;0.25;100.00;101592.63;2578041;55;20113;-66
2021/11/10 06:15:43;;;;;;;4.50;1.67;;;;;;;0.27;100.00;101598.69;2578034;55;20117;-72
2021/11/10 06:18:12;;;;;;;8.50;2.17;;;;;;;0.31;100.00;101589.03;2578271;55;20462;-71
2021/11/10 06:20:40;;;;;;;4.43;1.73;;;;;;;0.33;100.00;101592.47;2578083;55;20132;-71
2021/11/10 06:23:07;;;;;;;3.33;1.65;;;;;;;0.35;100.00;101594.19;2578494;55;20110;-68
2021/11/10 06:25:36;;;;;;;3.83;1.85;;;;;;;0.39;100.00;101593.22;2577943;55;20105;-71
2021/11/10 06:28:04;;;;;;;4.97;1.60;;;;;;;0.39;100.00;101590.59;2578228;55;20123;-65
2021/11/10 06:30:32;;;;;;;4.65;1.30;;;;;;;0.42;100.00;101581.81;2577857;55;20122;-67
2021/11/10 06:33:00;;;;;;;11.55;2.30;;;;;;;0.46;100.00;101582.63;2576534;55;20121;-67
2021/11/10 06:35:29;;;;;;;3.53;1.40;;;;;;;0.50;100.00;101579.91;2576335;55;20510;-67
2021/11/10 06:37:57;;;;;;;4.85;1.70;;;;;;;0.49;100.00;101575.56;2578109;55;20135;-66
2021/11/10 06:40:25;;;;;;;3.50;1.60;;;;;;;0.50;100.00;101573.78;2578403;55;20128;-67
2021/11/10 06:42:53;;;;;;;2.45;1.00;;;;;;;0.52;100.00;101559.72;2578250;55;20132;-70
2021/11/10 06:45:21;;;;;;;2.12;1.55;;;;;;;0.55;100.00;101567.56;2578034;55;20163;-66
2021/11/10 06:47:50;;;;;;;4.45;1.70;;;;;;;0.57;100.00;101559.63;2576263;55;20554;-69
2021/11/10 06:50:18;;;;;;;3.50;1.58;;;;;;;0.61;100.00;101566.56;2576245;55;20707;-70
2021/11/10 06:52:47;;;;;;;5.85;2.03;;;;;;;0.65;100.00;101556.84;2576738;55;20120;-67
2021/11/10 06:55:16;;;;;;;2.92;1.50;;;;;;;0.67;100.00;101550.66;2577234;55;20129;-70
2021/11/10 06:57:43;;;;;;;5.95;2.08;;;;;;;0.68;100.00;101560.28;2577502;55;20143;-66
2021/11/10 07:00:14;;;;;;;5.78;1.60;;;;;;;0.72;100.00;101557.62;2577216;55;20143;-70
2021/11/10 07:02:43;;;;;;;4.60;1.85;;;;;;;0.76;100.00;101548.75;2578534;55;20139;-66
2021/11/10 07:05:11;;;;;;;2.85;1.85;;;;;;;0.79;100.00;101567.97;2578834;55;20496;-70
2021/11/10 07:07:39;;;;;;;2.92;1.42;;;;;;;0.77;100.00;101558.38;2578824;55;20113;-66
2021/11/10 07:10:09;;;;;;;3.70;1.60;;;;;;;0.74;100.00;101561.91;2578962;55;20113;-67
2021/11/10 07:12:37;;;;;;;2.83;1.80;;;;;;;0.75;100.00;101542.66;2578974;55;20110;-66
2021/11/10 07:15:06;;;;;;;3.03;1.52;;;;;;;0.76;100.00;101544.38;2578795;55;20127;-66
2021/11/10 07:17:34;;;;;;;2.90;1.70;;;;;;;0.78;100.00;101544.34;2578931;55;20120;-67
2021/11/10 07:20:01;;;;;;;2.35;1.12;;;;;;;0.78;100.00;101544.34;2578843;55;20117;-67
2021/11/10 07:22:29;;;;;;;3.70;2.03;;;;;;;0.76;100.00;101546.13;2578903;55;20749;-70
2021/11/10 07:24:57;;;;;;;2.30;1.30;;;;;;;0.79;100.00;101549.56;2578937;55;20140;-67
2021/11/10 07:27:27;;;;;;;4.45;1.25;;;;;;;0.83;100.00;101555.63;2578908;55;20113;-67
2021/11/10 07:29:55;;;;;;;2.87;1.27;;;;;;;0.80;100.00;101550.41;2578811;55;20646;-67
2021/11/10 07:32:23;;;;;;;2.42;1.30;;;;;;;0.78;100.00;101542.59;2578898;55;20165;-67
2021/11/10 07:34:51;;;;;;;2.15;1.10;;;;;;;0.82;100.00;101548.66;2578943;55;20116;-70
2021/11/10 07:37:19;;;;;;;2.55;1.42;;;;;;;0.80;100.00;101534.66;2578768;55;20131;-71
2021/11/10 07:39:47;;;;;;;4.37;1.50;;;;;;;0.81;100.00;101534.63;2578997;55;20925;-71
2021/11/10 07:42:15;;;;;;;4.07;1.40;;;;;;;0.80;100.00;101534.66;2578866;55;20132;-70
2021/11/10 07:44:44;;;;;;;4.47;2.25;;;;;;;0.80;100.00;101534.66;2578731;55;20129;-67
2021/11/10 07:47:15;;;;;;;1.95;1.20;;;;;;;0.83;100.00;101526.72;2578974;55;20105;-67
2021/11/10 07:49:44;;;;;;;1.83;1.10;;;;;;;0.85;100.00;101535.44;2578726;55;20136;-67
2021/11/10 07:52:13;;;;;;;2.50;1.50;;;;;;;0.87;100.00;101536.25;2578667;55;20114;-67
2021/11/10 07:54:41;;;;;;;6.95;4.28;;;;;;;0.88;100.00;101522.22;2578704;55;20117;-67
2021/11/10 07:57:10;;;;;;;2.50;1.50;;;;;;;0.86;100.00;101523.16;2578838;55;20130;-67
2021/11/10 07:59:38;;;;;;;2.87;1.35;;;;;;;0.87;100.00;101530.16;2578794;55;20124;-67
2021/11/10 08:02:08;;;;;;;4.25;2.17;;;;;;;0.88;100.00;101524.84;2578790;55;20106;-66
2021/11/10 08:04:36;;;;;;;2.67;1.50;;;;;;;0.85;100.00;101519.66;2578415;55;20101;-70
2021/11/10 08:07:03;;;;;;;2.90;1.20;;;;;;;0.89;100.00;101528.34;2573610;55;20137;-67
2021/11/10 08:09:31;;;;;;;2.85;1.60;;;;;;;0.91;100.00;101513.41;2578769;55;20123;-70
2021/11/10 08:11:59;;;;;;;3.95;1.65;;;;;;;0.86;100.00;101513.50;2578776;55;20132;-71
2021/11/10 08:14:29;;;;;;;2.42;1.80;;;;;;;0.83;100.00;101518.84;2578694;55;20116;-67
2021/11/10 08:16:56;;;;;;;3.30;1.10;;;;;;;0.78;100.00;101518.06;2578670;55;20124;-70
2021/11/10 08:19:26;;;;;;;10.27;5.37;;;;;;;0.78;100.00;101504.91;2578592;55;20115;-67
2021/11/10 08:21:54;;;;;;;3.37;1.02;;;;;;;0.77;100.00;101497.94;2578695;55;20125;-70
2021/11/10 08:24:21;;;;;;;6.28;2.55;;;;;;;0.76;100.00;101504.09;2578629;55;20624;-67
2021/11/10 08:26:50;;;;;;;2.35;1.75;;;;;;;0.76;100.00;101504.09;2578678;55;20131;-70
2021/11/10 08:29:18;;;;;;;1.50;1.37;;;;;;;0.74;100.00;101503.28;2578628;55;20109;-67
2021/11/10 08:31:46;;;;;;;18.42;3.95;;;;;;;0.75;100.00;101505.00;2578579;55;20113;-71
2021/11/10 08:34:14;;;;;;;1.70;1.15;;;;;;;0.72;100.00;101505.91;2578569;55;20102;-70
2021/11/10 08:36:43;;;;;;;8.27;4.22;;;;;;;0.73;100.00;101504.16;2578390;55;20209;-67
2021/11/10 08:39:11;;;;;;;5.53;2.37;;;;;;;0.74;100.00;101500.66;2578737;55;20127;-69
2021/11/10 08:41:40;;;;;;;3.45;2.20;;;;;;;0.76;100.00;101504.09;2578709;55;20128;-70
2021/11/10 08:44:08;;;;;;;4.78;2.87;;;;;;;0.75;100.00;101494.50;2578685;55;20102;-67
2021/11/10 08:46:36;;;;;;;3.42;2.35;;;;;;;0.78;100.00;101499.66;2578479;55;20117;-70
2021/11/10 08:49:04;;;;;;;3.28;2.05;;;;;;;0.77;100.00;101513.72;2578557;55;20116;-67
2021/11/10 08:51:31;;;;;;;2.95;1.95;;;;;;;0.77;100.00;101500.56;2578600;55;20125;-69
2021/11/10 08:54:01;;;;;;;10.30;5.62;;;;;;;0.80;100.00;101497.87;2578619;55;20118;-69
2021/11/10 08:56:28;;;;;;;3.05;1.98;;;;;;;0.78;100.00;101497.03;2578610;55;20132;-69
2021/11/10 08:58:56;;;;;;;1.70;1.30;;;;;;;0.75;100.00;101491.88;2578734;55;20232;-66
2021/11/10 09:01:24;;;;;;;5.03;2.85;;;;;;;0.71;100.00;101477.06;2578513;55;20140;-67
2021/11/10 09:03:52;;;;;;;3.78;2.00;;;;;;;0.63;100.00;101492.97;2573491;55;20121;-69
2021/11/10 09:06:20;;;;;;;4.10;1.90;;;;;;;0.57;100.00;101493.12;2578467;55;20495;-69
2021/11/10 09:08:48;;;;;;;3.83;2.87;;;;;;;0.57;100.00;101491.34;2578757;55;20105;-68
2021/11/10 09:11:18;;;;;;;3.95;1.85;;;;;;;0.56;100.00;101479.12;2578524;55;20098;-67
2021/11/10 09:13:45;;;;;;;2.78;2.40;;;;;;;0.54;100.00;101478.28;2578420;55;20114;-69
2021/11/10 09:16:14;;;;;;;5.30;2.97;;;;;;;0.54;100.00;101471.25;2578278;55;20135;-69
2021/11/10 09:18:42;;;;;;;2.58;2.10;;;;;;;0.52;100.00;101472.22;2578320;55;20125;-69
2021/11/10 09:21:11;;;;;;;3.55;2.10;;;;;;;0.52;100.00;101472.22;2578434;55;20132;-67
2021/11/10 09:23:39;;;;;;;5.90;2.55;;;;;;;0.51;100.00;101470.50;2578582;55;20113;-67
2021/11/10 09:26:07;;;;;;;8.07;3.08;;;;;;;0.51;100.00;101471.34;2578292;55;20119;-69
2021/11/10 09:28:37;;;;;;;3.67;2.00;;;;;;;0.48;100.00;101466.16;2578586;55;20104;-66
2021/11/10 09:31:05;;;;;;;6.53;3.90;;;;;;;0.47;100.00;101455.66;2578384;55;20482;-66
2021/11/10 09:33:36;;;;;;;9.57;6.87;;;;;;;0.48;100.00;101460.91;2578395;55;20101;-67
2021/11/10 09:36:04;;;;;;;13.60;6.12;;;;;;;0.51;100.00;101463.47;2578448;55;20129;-67
2021/11/10 09:38:33;;;;;;;6.70;2.53;;;;;;;0.50;100.00;101458.22;2578551;55;20124;-70
2021/11/10 09:41:01;;;;;;;6.53;4.15;;;;;;;0.55;100.00;101459.88;2573369;55;20105;-67
2021/11/10 09:43:34;;;;;;;5.57;2.22;;;;;;;0.56;100.00;101455.47;2578330;55;20792;-72
2021/11/10 09:46:05;;;;;;;24.37;14.27;;;;;;;0.58;100.00;101464.19;2578108;55;20128;-72
2021/11/10 09:48:33;;;;;;;3.53;2.72;;;;;;;0.59;100.00;101452.78;2578357;55;20113;-72
2021/11/10 09:51:01;;;;;;;3.10;2.05;;;;;;;0.62;100.00;101444.84;2578261;55;20664;-67
2021/11/10 09:53:29;;;;;;;2.92;1.95;;;;;;;0.64;100.00;101435.16;2578223;55;20124;-67
2021/11/10 09:55:57;;;;;;;7.35;2.53;;;;;;;0.70;100.00;101418.41;2578359;55;20164;-71
2021/11/10 09:58:25;;;;;;;2.03;1.40;;;;;;;0.67;100.00;101424.59;2578393;55;20116;-71
2021/11/10 10:00:55;;;;;;;3.05;1.77;;;;;;;0.74;100.00;101429.72;2578388;55;20145;-71
2021/11/10 10:03:26;;;;;;;2.90;1.60;;;;;;;0.79;100.00;101425.19;2578269;55;20133;-67
2021/11/10 10:05:55;;;;;;;3.60;1.83;;;;;;;0.81;100.00;101415.56;2578379;55;20119;-71
2021/11/10 10:08:24;;;;;;;2.30;1.45;;;;;;;0.75;100.00;101418.31;2578367;55;20153;-68
2021/11/10 10:10:52;;;;;;;1.50;1.00;;;;;;;0.77;100.00;101409.50;2578406;55;20608;-72
2021/11/10 10:13:21;;;;;;;4.93;1.30;;;;;;;0.79;100.00;101412.94;2578318;55;20128;-69
2021/11/10 10:15:51;;;;;;;1.92;1.23;;;;;;;0.77;100.00;101413.88;2578430;55;20122;-73
2021/11/10 10:18:22;;;;;;;2.40;1.23;;;;;;;0.76;100.00;101407.78;2578365;55;20118;-69
2021/11/10 10:20:57;;;;;;;1.77;1.30;;;;;;;0.77;100.00;101409.50;2578260;55;20723;-73
2021/11/10 10:23:26;;;;;;;2.05;1.20;;;;;;;0.78;100.00;101407.72;2578424;55;20131;-72
2021/11/10 10:25:59;;;;;;;2.50;1.37;;;;;;;0.76;100.00;101399.00;2578340;55;20109;-71
2021/11/10 10:28:28;;;;;;;1.90;0.98;;;;;;;0.75;100.00;101407.78;2578425;55;20125;-72
2021/11/10 10:30:59;;;;;;;2.35;1.08;;;;;;;0.74;100.00;101403.44;2579090;55;20117;-69
2021/11/10 10:33:30;;;;;;;3.33;1.30;;;;;;;0.78;100.00;101395.47;2578970;55;20165;-68
2021/11/10 10:36:01;;;;;;;3.05;1.00;;;;;;;0.81;100.00;101394.53;2579064;55;20160;-72
2021/11/10 10:38:33;;;;;;;3.25;1.20;;;;;;;0.77;100.00;101374.47;2579154;55;20125;-69
2021/11/10 10:41:02;;;;;;;2.22;1.37;;;;;;;0.75;100.00;101389.41;2579138;55;20131;-73
2021/11/10 10:43:30;;;;;;;1.92;1.23;;;;;;;0.80;100.00;101387.53;2579054;55;20118;-72
2021/11/10 10:45:59;;;;;;;2.00;1.17;;;;;;;0.82;100.00;101381.34;2578990;55;20234;-73
2021/11/10 10:48:29;;;;;;;3.62;1.20;;;;;;;0.83;100.00;101376.97;2579052;55;20673;-72
2021/11/10 10:51:00;;;;;;;3.65;1.30;;;;;;;0.81;100.00;101384.88;2579152;55;20123;-69
2021/11/10 10:53:39;;;;;;;1.45;1.02;;;;;;;0.85;100.00;101382.16;2579304;55;20114;-69
2021/11/10 10:56:20;;;;;;;1.70;1.10;;;;;;;0.86;100.00;101382.13;2578829;55;20157;-72
2021/11/10 10:58:51;;;;;;;3.40;1.12;;;;;;;0.87;100.00;101377.75;2578985;55;20481;-68
2021/11/10 11:01:25;;;;;;;3.22;1.70;;;;;;;0.89;100.00;101376.78;2578877;55;20117;-72
2021/11/10 11:03:55;;;;;;;2.50;1.00;;;;;;;0.83;100.00;101363.81;2579247;55;20117;-68
2021/11/10 11:06:31;;;;;;;1.70;1.25;;;;;;;0.89;100.00;101370.69;2578913;55;20112;-73
2021/11/10 11:09:09;;;;;;;1.67;1.12;;;;;;;0.90;100.00;101372.41;2578909;55;20132;-69
2021/11/10 11:11:43;;;;;;;2.85;1.52;;;;;;;0.86;100.00;101370.78;2579034;55;20127;-72
2021/11/10 11:14:26;;;;;;;2.05;1.00;;;;;;;0.88;100.00;101364.56;2578925;55;20154;-68
2021/11/10 11:17:04;;;;;;;1.45;0.88;;;;;;;0.88;100.00;101363.72;2579119;55;20112;-68
2021/11/10 11:19:33;;;;;;;1.02;0.70;;;;;;;0.91;100.00;101359.25;2579084;55;20109;-68
2021/11/10 11:22:03;;;;;;;1.83;1.40;;;;;;;0.94;100.00;101356.53;2579014;55;20112;-69
2021/11/10 11:24:42;;;;;;;2.28;1.00;;;;;;;0.94;100.00;101353.91;2573853;55;20132;-72
2021/11/10 11:27:19;;;;;;;1.35;0.90;;;;;;;0.94;100.00;101351.28;2578866;55;20121;-68
2021/11/10 11:29:54;;;;;;;0.77;0.60;;;;;;;0.97;100.00;101345.94;2578796;55;20131;-68
2021/11/10 11:32:26;;;;;;;1.05;0.70;;;;;;;1.00;100.00;101337.12;2578966;55;20116;-69